Loisir ou Compétition : Rejoignez un Club de la Fédération

Résultats

GP de la ville de ferney Trophée Banque Populaire des Alpes

LELEX

GS Hommes

Jury de Compétition

Délégué Technique :
BLANCHARD RAYMOND (MJ)
Arbitre :
CARLOD MARCEL (MJ)
Assistant :
 
Dir. Epreuve :
DUFFAUD WOICZIK MARIELLE (MJ)

Caractéristiques de la Piste

Piste :
LES RHODOS
Départ :
1530
Arrivée :
1310
Dénivelé :
220
Homologation :
2040/12/03

Manche 1

Nombre de Portes :
26
Heure de Départ :
10h00
Traceur :
ANTONSEN BERNT (MJ)
Ouvreurs A :
LANZA XAVIER (MJ)
Ouvreurs B :
BOBBINK PAUL (MJ)
Ouvreurs C :
 
Ouvreurs D :
 
Ouvreurs E :
 
Temps :
BEAU
Neige :
FROIDE

Manche 2

Nombre de Portes :
26
Heure de Départ :
12h00
Traceur :
ANTONSEN BERNT (MJ)
Ouvreurs A :
LANZA XAVIER (MJ)
Ouvreurs B :
BOBBINK PAUL (MJ)
Ouvreurs C :
 
Ouvreurs D :
 
Ouvreurs E :
 
Température Départ :
-3
Température Arrivée :
-3

Pénalité Appliquée :
224.7400

Catégorie :
Pou->Min
Clt Dos Clt/Cat Code An Nom Prénom Com Club Tps M1 Tps M2 Tps Tot Pts
Classés
1 143 1/Ben FFS2260942 1993 HEMMER GUILLAUME MJ SC J.GESSIEN 48.26 47.45 1:35.71 224.74
2 133 2/Ben FFS2322716 1993 SAGNE CYRIL MJ MTS JURA ML 48.49 48.24 1:36.73 234.01
3 47 1/Pou FFS2322473 1995 JOUDRAIN THEO MJ SC J.GESSIEN 47.46 49.70 1:37.16 237.92
4 138 3/Ben FFS2227401 1993 COLIN JULIEN MJ SC J.GESSIEN 48.60 48.72 1:37.32 239.37
5 181 1/Min FFS2260876 1992 GEERAERT THIBAULT MJ SC J.GESSIEN 49.81 49.10 1:38.91 253.83
6 146 4/Ben FFS2352454 1993 BARATCABAL CHARLES MJ SC J.GESSIEN 49.83 49.16 1:38.99 254.56
7 142 5/Ben FFS2623156 1993 MAMZER NICOLAS MJ SC J.GESSIEN 50.62 48.39 1:39.01 254.74
8 111 6/Ben FFS2261434 1993 CLAPIER THOMAS MJ SC J.GESSIEN 49.78 49.59 1:39.37 258.01
9 120 7/Ben FFS2260889 1993 BOBBINK PATRICK MJ SC J.GESSIEN 50.56 48.98 1:39.54 259.55
10 171 2/Min FFS2601866 1991 VAN GYSEGEM REMY MJ SC ST GENIS 50.18 49.52 1:39.70 261.01
11 174 3/Min FFS2260865 1992 GIROUD YANN MJ SC J.GESSIEN 49.54 50.42 1:39.96 263.37
12 180 4/Min FFS2260919 1991 BELGY KEVIN MJ SC J.GESSIEN 50.66 49.92 1:40.58 269.01
13 124 8/Ben FFS2292838 1993 PECORARO CYRIL MJ SC ST GENIS 50.81 49.90 1:40.71 270.19
14 184 5/Min FFS2292425 1992 MERRANT ANTOINE MJ SC J.GESSIEN 55.35 45.62 1:40.97 272.55
15 141 9/Ben FFS2352443 1994 FOURNIER AXEL MJ SC J.GESSIEN 50.88 50.30 1:41.18 274.46
16 151 10/Ben FFS2322522 1994 PAGEL HENRICK MJ SC J.GESSIEN 51.72 49.85 1:41.57 278.01
17 185 6/Min FFS2227360 1992 DUBOUT ALEXIS MJ SC J.GESSIEN 51.10 50.53 1:41.63 278.55
18 177 7/Min FFS2227389 1992 MEDARD JIMMY MJ SC J.GESSIEN 51.40 51.44 1:42.84 289.55
19 144 11/Ben FFS2601510 1994 GRUET CLOVIS MJ SC J.GESSIEN 53.00 51.27 1:44.27 302.55
20 72 2/Pou FFS2352455 1996 BARATCABAL YOURI MJ SC J.GESSIEN 51.97 52.86 1:44.83 307.64
21 49 3/Pou FFS2615521 1995 CARRAZ MAXIME MJ SC LANCRANS 53.00 52.11 1:45.11 310.19
22 55 4/Pou FFS2623157 1995 MAMZER BENJAMIN MJ SC J.GESSIEN 52.78 52.56 1:45.34 312.28
23 155 12/Ben FFS2292452 1993 DUMONT GIRARD MARC MJ SC J.GESSIEN 53.64 51.79 1:45.43 313.09
24 117 13/Ben FFS2603682 1993 BRET JONATHAN MJ SC J.GESSIEN 52.27 53.27 1:45.54 314.09
24 134 13/Ben FFS2615225 1993 CHARVET VINCENT MJ SC J.GESSIEN 53.12 52.42 1:45.54 314.09
26 39 5/Pou FFS2352464 1996 ARBEZ MAXIME MJ SC J.GESSIEN 53.39 52.48 1:45.87 317.09
27 178 8/Min FFS2322822 1992 KOURNWSKY ALEXIS MJ US OYONNAX 55.44 50.71 1:46.15 319.64
28 114 15/Ben FFS2352484 1993 HUMBERT PIERRICK MJ SC J.GESSIEN 54.19 52.01 1:46.20 320.09
29 118 16/Ben FFS2292421 1994 MAGNIN SERAPHIN MJ SC ST GENIS 54.38 52.33 1:46.71 324.73
30 136 17/Ben FFS2322874 1994 DUJOUX QUENTIN MJ SC ST GENIS 54.66 52.42 1:47.08 328.09
31 135 18/Ben FFS2622861 1994 CURNIER ROMAIN MJ SC J.GESSIEN 54.59 52.70 1:47.29 330.00
32 42 6/Pou FFS2602390 1995 PORTA HUGO MJ SC ST GENIS 53.59 54.11 1:47.70 333.73
33 153 19/Ben FFS2623158 1993 BLANCHARD WILLIAM MJ SC J.GESSIEN 55.74 52.46 1:48.20 338.27
34 175 9/Min FFS2322448 1992 JACQUEMIN GUILLAUME CHARL MJ SC J.GESSIEN 54.42 54.42 1:48.84 344.09
35 147 20/Ben FFS2600532 1993 COUTURIER CHARLY MJ SC LANCRANS 54.67 54.28 1:48.95 345.09
36 159 21/Ben FFS2260944 1993 BOZONET KILLIAN MJ SC J.GESSIEN 55.75 53.23 1:48.98 345.36
37 158 22/Ben FFS2322559 1993 SAKAMOTO TAKAKI MJ SC J.GESSIEN 54.85 54.26 1:49.11 346.55
38 129 23/Ben FFS2352504 1994 HERNANDEZ TEO MJ SC J.GESSIEN 56.04 53.39 1:49.43 349.45
39 176 10/Min FFS2628703 1992 SIRAUD QUENTIN MJ SC J.GESSIEN 54.93 55.73 1:50.66 360.63
40 71 7/Pou FFS2616665 1996 BELGY DYLAN MJ SC J.GESSIEN 55.41 55.34 1:50.75 361.45
41 148 24/Ben FFS2601182 1994 FORSTMANN GUILLAUME MJ SC ST GENIS 57.01 53.98 1:50.99 363.63
42 121 25/Ben FFS2352493 1994 STEVENS JEREMY MJ SC J.GESSIEN 55.85 55.89 1:51.74 370.45
43 59 8/Pou FFS2322443 1995 CHAMBOST REMI MJ SC J.GESSIEN 56.79 56.11 1:52.90 381.00
44 149 26/Ben FFS2629380 1994 NICHOLS THOMAS MJ SC ST GENIS 57.12 55.96 1:53.08 382.63
45 137 27/Ben FFS2603675 1993 WICKETT BRANDON MJ SC J.GESSIEN 55.97 57.23 1:53.20 383.72
46 36 9/Pou FFS2602702 1996 LEHNERT ULYSSE MJ SC J.GESSIEN 56.80 56.52 1:53.32 384.81
47 123 28/Ben FFS2616557 1994 CAMUS ROBIN MJ SC J.GESSIEN 56.82 56.64 1:53.46 386.09
48 34 10/Pou FFS2604973 1996 PONCET ANTOINE MJ SC J.GESSIEN 56.11 58.15 1:54.26 393.36
49 60 11/Pou FFS2622509 1995 ZIOSI DAVID MJ MTS JURA ML 57.74 57.22 1:54.96 399.72
50 74 12/Pou FFS2352496 1995 BOUVRY ALBAN MJ SC J.GESSIEN 57.74 57.36 1:55.10 400.99
51 128 29/Ben FFS2629116 1994 HOSTETTLER TANGUY MJ SC J.GESSIEN 58.13 57.89 1:56.02 409.36
52 126 30/Ben FFS2616221 1994 JANICHON THOMAS MJ SC LANCRANS 58.07 58.82 1:56.89 417.27
53 56 13/Pou FFS2601601 1996 DUMONT GIRARD RAPHAEL MJ SC J.GESSIEN 58.78 58.19 1:56.97 417.99
54 140 31/Ben FFS2626248 1994 MARTINEZ ROBIN MJ SC LANCRANS 1:00.49 58.10 1:58.59 432.72
55 70 14/Pou FFS2615252 1996 CARALP HERVE MJ SC J.GESSIEN 59.64 59.31 1:58.95 435.99
56 51 15/Pou FFS2602752 1996 CARTIER YVAN MJ SC J.GESSIEN 1:00.60 58.39 1:58.99 436.35
57 52 16/Pou FFS2601508 1996 HERNANDEZ HUGO MJ SC J.GESSIEN 1:00.14 58.95 1:59.09 437.26
58 40 17/Pou FFS2604376 1995 GIRARD LUCAS MJ SC J.GESSIEN 1:00.11 59.32 1:59.43 440.35
59 45 18/Pou FFS2626875 1996 ROCHET THIBAULT MJ US OYONNAX 59.72 59.89 1:59.61 441.99
60 112 32/Ben FFS2623333 1994 TAVERNIER QUENTIN MJ SC J.GESSIEN 59.55 1:00.37 1:59.92 444.81
61 125 33/Ben FFS2605605 1994 MANN MARCO MJ SC J.GESSIEN 1:01.23 58.98 2:00.21 447.44
62 130 34/Ben FFS2606053 1994 METAIS NICOLAS MJ SC J.GESSIEN 1:00.60 1:00.20 2:00.80 452.81
63 119 35/Ben FFS2616658 1994 THIRVAUDEY CORENTIN MJ SC J.GESSIEN 1:01.43 59.43 2:00.86 453.35
64 152 36/Ben FFS2322558 1993 BLANC P BENOIT MJ SC J.GESSIEN 1:00.65 1:00.27 2:00.92 453.90
65 48 19/Pou FFS2626246 1996 COTTIER NANS MJ SC LANCRANS 1:01.35 1:00.28 2:01.63 460.35
66 50 20/Pou FFS2627504 1996 EUSTACHON ROBIN MJ SC J.GESSIEN 1:01.49 1:01.39 2:02.88 471.71
67 63 21/Pou FFS2352898 1996 MOINE LEO MJ SC ST GENIS 1:00.88 1:03.15 2:04.03 482.17
68 122 37/Ben FFS2629038 1994 MAILLARD THIBAULT MJ SC J.GESSIEN 1:03.56 1:00.56 2:04.12 482.99
69 179 11/Min FFS2628854 1992 JACQUET QUENTIN MJ US OYONNAX 1:02.24 1:01.92 2:04.16 483.35
70 37 22/Pou FFS2603461 1995 KRAJCIK BENJAMIN MJ SC J.GESSIEN 1:01.65 1:02.62 2:04.27 484.35
71 115 38/Ben FFS2352510 1994 BERTHIER BRICE MJ SC J.GESSIEN 1:03.37 1:01.63 2:05.00 490.98
72 64 23/Pou FFS2614915 1995 DUCRET ROMAIN MJ SC LANCRANS 1:04.46 1:00.96 2:05.42 494.80
73 46 24/Pou FFS2628776 1996 THEVENET ADRIEN MJ SC J.GESSIEN 1:04.14 1:02.31 2:06.45 504.17
74 75 25/Pou FFS2627523 1996 LIPMAN BENJAMIN MJ SC J.GESSIEN 1:03.69 1:03.65 2:07.34 512.26
75 58 26/Pou FFS2615793 1995 SALINESI QUENTIN MJ SC J.GESSIEN 1:04.77 1:03.42 2:08.19 519.98
76 57 27/Pou FFS2616431 1995 BARRIERE LUCAS MJ SC J.GESSIEN 1:03.51 1:04.91 2:08.42 522.07
77 65 28/Pou FFS2623984 1996 SANDSTROM AXEL MJ SC J.GESSIEN 1:04.73 1:05.06 2:09.79 534.53
78 66 29/Pou FFS2615267 1995 MILAZZO GABRIEL MJ SC J.GESSIEN 1:04.88 1:05.03 2:09.91 535.62
79 43 30/Pou FFS2623319 1996 BERRY PIERRE MJ MTS JURA ML 1:02.06 1:09.34 2:11.40 549.16
80 113 39/Ben FFS2615285 1994 LAMBERT FLORENT MJ SC J.GESSIEN 1:04.39 1:07.21 2:11.60 550.98
81 61 31/Pou FFS2616558 1995 GIRARDON JEAN MJ SC J.GESSIEN 1:05.83 1:05.89 2:11.72 552.07
82 127 40/Ben FFS2619765 1994 CELLE PIERRE ANTOI MJ SC LANCRANS 1:06.35 1:05.73 2:12.08 555.34
83 38 32/Pou FFS2627520 1996 LAMY JONATHAN MJ SC J.GESSIEN 1:06.85 1:06.59 2:13.44 567.70
84 69 33/Pou FFS2624553 1995 CAVALLI LUCA MJ US OYONNAX 1:08.85 1:05.85 2:14.70 579.16
85 41 34/Pou FFS2620304 1996 KOURNWSKI AXEL MJ US OYONNAX 1:08.49 1:10.94 2:19.43 622.15
86 32 35/Pou FFS2628305 1995 BERNARDI BENJAMIN MJ US OYONNAX 1:09.20 1:10.88 2:20.08 628.06
87 145 41/Ben FFS2627530 1993 MAST CLEMENT MJ SC J.GESSIEN 1:12.95 1:09.87 2:22.82 652.97
88 131 42/Ben FFS2603683 1994 MARQUET PIERRE MJ SC J.GESSIEN 1:11.13 1:12.56 2:23.69 660.88
89 53 36/Pou FFS2625831 1995 BEAUPOIL PIERRE MJ MTS JURA ML 1:11.80 1:12.19 2:23.99 663.60
90 160 43/Ben FFS2622859 1994 BEBON LUDOVIC MJ SC J.GESSIEN 1:49.34 1:08.22 2:57.56 968.75
Abandons
31 FFS2322519 1995 NOURRISSE JEFF MJ SC J.GESSIEN 52.39
44 FFS2603451 1995 MOUTON CLEMENT MJ SC J.GESSIEN
68 FFS2352897 1996 MOINE NICOLAS MJ SC ST GENIS 1:06.00
150 FFS2600211 1993 PELENC DORIAN MJ US OYONNAX 1:00.04
156 FFS2616023 1993 LEE LOWAN MJ SC J.GESSIEN
Disqualifiés
73 FFS2352505 1995 REDEMPT ALEXIS MJ SC J.GESSIEN 58.63
173 FFS2227397 1991 BOBBINK FELIX MJ SC J.GESSIEN 48.41
Non partants
33 FFS2626247 1995 SOL AYMERIC MJ SC LANCRANS
35 FFS2620303 1996 PELENC LUCA MJ US OYONNAX 1:05.20
54 FFS2322499 1995 FRAMMERY HUGO MJ SC ST GENIS
62 FFS2623709 1996 DIXMERIAS MAXIME MJ SC J.GESSIEN
67 FFS2624600 1996 JUNG GERO MJ SC J.GESSIEN
116 FFS2626204 1994 LICCI LOUIS MJ SC ST GENIS
132 FFS2352485 1994 HUMBERT TANGUY MJ SC J.GESSIEN
139 FFS2604874 1994 SERVIANT LORIS MJ MTS JURA ML 52.14
154 FFS2352523 1994 MICHAUD THOMAS MJ SC J.GESSIEN
172 FFS2260937 1992 CORNEVIN ANTOINE MJ SC ST GENIS
182 FFS2260913 1992 LEMAIRE THEO MJ SC J.GESSIEN
183 FFS2292769 1992 MORAIS PHILIPPE MJ SC ST GENIS